sensor_id;sensor_type;location;lat;lon;timestamp;P1;durP1;ratioP1;P2;durP2;ratioP2
17725;SDS011;8983;53.156;17.960;2023-07-08T00:01:13;7.10;;;3.67;;
17725;SDS011;8983;53.156;17.960;2023-07-08T00:03:43;3.97;;;3.33;;
17725;SDS011;8983;53.156;17.960;2023-07-08T00:06:13;6.13;;;3.70;;
17725;SDS011;8983;53.156;17.960;2023-07-08T00:08:47;4.68;;;3.40;;
17725;SDS011;8983;53.156;17.960;2023-07-08T00:11:16;5.10;;;3.50;;
17725;SDS011;8983;53.156;17.960;2023-07-08T00:13:45;7.43;;;4.10;;
17725;SDS011;8983;53.156;17.960;2023-07-08T00:16:14;3.70;;;3.40;;
17725;SDS011;8983;53.156;17.960;2023-07-08T00:18:43;4.53;;;3.63;;
17725;SDS011;8983;53.156;17.960;2023-07-08T00:21:12;5.03;;;4.00;;
17725;SDS011;8983;53.156;17.960;2023-07-08T00:23:43;3.33;;;3.07;;
17725;SDS011;8983;53.156;17.960;2023-07-08T00:26:13;4.50;;;3.70;;
17725;SDS011;8983;53.156;17.960;2023-07-08T00:28:46;4.87;;;3.53;;
17725;SDS011;8983;53.156;17.960;2023-07-08T00:31:14;5.33;;;3.60;;
17725;SDS011;8983;53.156;17.960;2023-07-08T00:33:42;6.07;;;3.50;;
17725;SDS011;8983;53.156;17.960;2023-07-08T00:36:11;4.53;;;3.50;;
17725;SDS011;8983;53.156;17.960;2023-07-08T00:38:40;4.07;;;3.20;;
17725;SDS011;8983;53.156;17.960;2023-07-08T00:41:12;4.27;;;3.30;;
17725;SDS011;8983;53.156;17.960;2023-07-08T00:43:47;4.10;;;3.47;;
17725;SDS011;8983;53.156;17.960;2023-07-08T00:46:31;4.27;;;3.50;;
17725;SDS011;8983;53.156;17.960;2023-07-08T00:49:11;6.27;;;3.80;;
17725;SDS011;8983;53.156;17.960;2023-07-08T00:51:52;3.50;;;3.17;;
17725;SDS011;8983;53.156;17.960;2023-07-08T00:54:20;4.43;;;3.27;;
17725;SDS011;8983;53.156;17.960;2023-07-08T00:56:49;5.73;;;3.60;;
17725;SDS011;8983;53.156;17.960;2023-07-08T00:59:25;6.57;;;3.53;;
17725;SDS011;8983;53.156;17.960;2023-07-08T01:01:57;4.70;;;3.43;;
17725;SDS011;8983;53.156;17.960;2023-07-08T01:04:31;7.33;;;3.70;;
17725;SDS011;8983;53.156;17.960;2023-07-08T01:07:02;5.00;;;3.40;;
17725;SDS011;8983;53.156;17.960;2023-07-08T01:09:36;5.40;;;3.50;;
17725;SDS011;8983;53.156;17.960;2023-07-08T01:12:10;6.20;;;3.50;;
17725;SDS011;8983;53.156;17.960;2023-07-08T01:14:42;5.23;;;3.53;;
17725;SDS011;8983;53.156;17.960;2023-07-08T01:17:11;3.57;;;3.23;;
17725;SDS011;8983;53.156;17.960;2023-07-08T01:19:41;4.00;;;3.47;;
17725;SDS011;8983;53.156;17.960;2023-07-08T01:22:11;3.47;;;3.17;;
17725;SDS011;8983;53.156;17.960;2023-07-08T01:24:40;4.57;;;3.63;;
17725;SDS011;8983;53.156;17.960;2023-07-08T01:27:11;5.87;;;3.37;;
17725;SDS011;8983;53.156;17.960;2023-07-08T01:29:41;5.13;;;3.53;;
17725;SDS011;8983;53.156;17.960;2023-07-08T01:32:10;4.90;;;3.50;;
17725;SDS011;8983;53.156;17.960;2023-07-08T01:34:45;3.77;;;3.17;;
17725;SDS011;8983;53.156;17.960;2023-07-08T01:37:31;3.30;;;3.00;;
17725;SDS011;8983;53.156;17.960;2023-07-08T01:40:23;6.30;;;3.60;;
17725;SDS011;8983;53.156;17.960;2023-07-08T01:42:54;4.43;;;3.00;;
17725;SDS011;8983;53.156;17.960;2023-07-08T01:45:24;4.13;;;3.40;;
17725;SDS011;8983;53.156;17.960;2023-07-08T01:47:57;4.73;;;3.30;;
17725;SDS011;8983;53.156;17.960;2023-07-08T01:50:28;3.73;;;3.17;;
17725;SDS011;8983;53.156;17.960;2023-07-08T01:53:00;3.50;;;3.20;;
17725;SDS011;8983;53.156;17.960;2023-07-08T01:55:35;4.37;;;3.23;;
17725;SDS011;8983;53.156;17.960;2023-07-08T01:58:03;4.13;;;3.73;;
17725;SDS011;8983;53.156;17.960;2023-07-08T02:00:31;4.37;;;3.07;;
17725;SDS011;8983;53.156;17.960;2023-07-08T02:02:59;4.10;;;3.37;;
17725;SDS011;8983;53.156;17.960;2023-07-08T02:05:27;4.63;;;3.13;;
17725;SDS011;8983;53.156;17.960;2023-07-08T02:07:56;6.00;;;3.53;;
17725;SDS011;8983;53.156;17.960;2023-07-08T02:10:25;4.33;;;3.27;;
17725;SDS011;8983;53.156;17.960;2023-07-08T02:12:53;3.90;;;3.00;;
17725;SDS011;8983;53.156;17.960;2023-07-08T02:15:21;4.43;;;3.47;;
17725;SDS011;8983;53.156;17.960;2023-07-08T02:17:49;4.23;;;2.83;;
17725;SDS011;8983;53.156;17.960;2023-07-08T02:20:17;3.50;;;3.20;;
17725;SDS011;8983;53.156;17.960;2023-07-08T02:22:46;4.37;;;3.20;;
17725;SDS011;8983;53.156;17.960;2023-07-08T02:25:14;5.43;;;3.07;;
17725;SDS011;8983;53.156;17.960;2023-07-08T02:27:44;3.60;;;3.30;;
17725;SDS011;8983;53.156;17.960;2023-07-08T02:30:12;4.77;;;3.43;;
17725;SDS011;8983;53.156;17.960;2023-07-08T02:32:41;4.33;;;3.33;;
17725;SDS011;8983;53.156;17.960;2023-07-08T02:35:15;4.67;;;3.30;;
17725;SDS011;8983;53.156;17.960;2023-07-08T02:37:43;5.83;;;3.40;;
17725;SDS011;8983;53.156;17.960;2023-07-08T02:40:12;5.60;;;3.47;;
17725;SDS011;8983;53.156;17.960;2023-07-08T02:42:40;3.93;;;3.40;;
17725;SDS011;8983;53.156;17.960;2023-07-08T02:45:10;5.40;;;3.17;;
17725;SDS011;8983;53.156;17.960;2023-07-08T02:47:39;4.17;;;3.10;;
17725;SDS011;8983;53.156;17.960;2023-07-08T02:50:07;4.83;;;3.03;;
17725;SDS011;8983;53.156;17.960;2023-07-08T02:52:36;6.13;;;3.23;;
17725;SDS011;8983;53.156;17.960;2023-07-08T02:55:05;5.20;;;3.43;;
17725;SDS011;8983;53.156;17.960;2023-07-08T02:57:34;3.87;;;3.50;;
17725;SDS011;8983;53.156;17.960;2023-07-08T03:00:02;4.30;;;3.50;;
17725;SDS011;8983;53.156;17.960;2023-07-08T03:02:34;5.13;;;3.40;;
17725;SDS011;8983;53.156;17.960;2023-07-08T03:05:02;3.93;;;3.27;;
17725;SDS011;8983;53.156;17.960;2023-07-08T03:07:31;3.80;;;3.00;;
17725;SDS011;8983;53.156;17.960;2023-07-08T03:09:59;4.57;;;3.33;;
17725;SDS011;8983;53.156;17.960;2023-07-08T03:12:28;4.80;;;3.40;;
17725;SDS011;8983;53.156;17.960;2023-07-08T03:14:56;5.50;;;3.37;;
17725;SDS011;8983;53.156;17.960;2023-07-08T03:17:24;6.70;;;3.53;;
17725;SDS011;8983;53.156;17.960;2023-07-08T03:19:53;5.53;;;4.00;;
17725;SDS011;8983;53.156;17.960;2023-07-08T03:22:22;4.10;;;3.40;;
17725;SDS011;8983;53.156;17.960;2023-07-08T03:24:50;4.27;;;3.50;;
17725;SDS011;8983;53.156;17.960;2023-07-08T03:27:18;4.00;;;3.43;;
17725;SDS011;8983;53.156;17.960;2023-07-08T03:29:47;3.80;;;3.40;;
17725;SDS011;8983;53.156;17.960;2023-07-08T03:32:15;3.73;;;3.43;;
17725;SDS011;8983;53.156;17.960;2023-07-08T03:34:43;5.47;;;3.40;;
17725;SDS011;8983;53.156;17.960;2023-07-08T03:37:13;4.87;;;3.40;;
17725;SDS011;8983;53.156;17.960;2023-07-08T03:39:41;3.80;;;3.50;;
17725;SDS011;8983;53.156;17.960;2023-07-08T03:42:09;4.07;;;3.53;;
17725;SDS011;8983;53.156;17.960;2023-07-08T03:44:37;4.10;;;3.60;;
17725;SDS011;8983;53.156;17.960;2023-07-08T03:47:07;4.03;;;3.73;;
17725;SDS011;8983;53.156;17.960;2023-07-08T03:49:35;7.23;;;3.83;;
17725;SDS011;8983;53.156;17.960;2023-07-08T03:52:04;4.23;;;3.77;;
17725;SDS011;8983;53.156;17.960;2023-07-08T03:54:34;5.90;;;3.60;;
17725;SDS011;8983;53.156;17.960;2023-07-08T03:57:02;4.10;;;3.70;;
17725;SDS011;8983;53.156;17.960;2023-07-08T03:59:31;4.37;;;3.80;;
17725;SDS011;8983;53.156;17.960;2023-07-08T04:01:59;4.57;;;3.20;;
17725;SDS011;8983;53.156;17.960;2023-07-08T04:04:27;4.60;;;3.80;;
17725;SDS011;8983;53.156;17.960;2023-07-08T04:06:55;8.60;;;4.17;;
17725;SDS011;8983;53.156;17.960;2023-07-08T04:09:23;7.67;;;3.80;;
17725;SDS011;8983;53.156;17.960;2023-07-08T04:11:53;6.80;;;4.00;;
17725;SDS011;8983;53.156;17.960;2023-07-08T04:14:21;8.50;;;4.10;;
17725;SDS011;8983;53.156;17.960;2023-07-08T04:16:50;7.90;;;3.73;;
17725;SDS011;8983;53.156;17.960;2023-07-08T04:19:24;7.40;;;3.80;;
17725;SDS011;8983;53.156;17.960;2023-07-08T04:21:53;5.13;;;4.23;;
17725;SDS011;8983;53.156;17.960;2023-07-08T04:24:21;6.23;;;3.80;;
17725;SDS011;8983;53.156;17.960;2023-07-08T04:26:50;5.40;;;3.77;;
17725;SDS011;8983;53.156;17.960;2023-07-08T04:29:21;5.10;;;4.00;;
17725;SDS011;8983;53.156;17.960;2023-07-08T04:31:50;4.70;;;4.00;;
17725;SDS011;8983;53.156;17.960;2023-07-08T04:34:18;4.93;;;4.43;;
17725;SDS011;8983;53.156;17.960;2023-07-08T04:36:47;7.13;;;4.07;;
17725;SDS011;8983;53.156;17.960;2023-07-08T04:39:15;7.47;;;4.50;;
17725;SDS011;8983;53.156;17.960;2023-07-08T04:41:43;4.90;;;3.90;;
17725;SDS011;8983;53.156;17.960;2023-07-08T04:44:12;4.37;;;3.97;;
17725;SDS011;8983;53.156;17.960;2023-07-08T04:46:42;5.10;;;4.17;;
17725;SDS011;8983;53.156;17.960;2023-07-08T04:49:14;6.17;;;4.27;;
17725;SDS011;8983;53.156;17.960;2023-07-08T04:51:42;5.63;;;4.37;;
17725;SDS011;8983;53.156;17.960;2023-07-08T04:54:11;5.17;;;4.40;;
17725;SDS011;8983;53.156;17.960;2023-07-08T04:56:40;7.00;;;4.90;;
17725;SDS011;8983;53.156;17.960;2023-07-08T04:59:09;8.53;;;5.13;;
17725;SDS011;8983;53.156;17.960;2023-07-08T05:01:39;7.77;;;4.80;;
17725;SDS011;8983;53.156;17.960;2023-07-08T05:04:12;9.10;;;5.30;;
17725;SDS011;8983;53.156;17.960;2023-07-08T05:06:42;6.63;;;4.73;;
17725;SDS011;8983;53.156;17.960;2023-07-08T05:09:10;5.77;;;5.17;;
17725;SDS011;8983;53.156;17.960;2023-07-08T05:11:42;8.33;;;4.60;;
17725;SDS011;8983;53.156;17.960;2023-07-08T05:14:11;6.57;;;5.10;;
17725;SDS011;8983;53.156;17.960;2023-07-08T05:16:39;6.00;;;4.70;;
17725;SDS011;8983;53.156;17.960;2023-07-08T05:19:09;5.87;;;5.13;;
17725;SDS011;8983;53.156;17.960;2023-07-08T05:21:37;9.60;;;5.10;;
17725;SDS011;8983;53.156;17.960;2023-07-08T05:24:06;6.70;;;4.87;;
17725;SDS011;8983;53.156;17.960;2023-07-08T05:26:35;8.90;;;4.77;;
17725;SDS011;8983;53.156;17.960;2023-07-08T05:29:03;9.13;;;4.77;;
17725;SDS011;8983;53.156;17.960;2023-07-08T05:31:32;8.03;;;5.20;;
17725;SDS011;8983;53.156;17.960;2023-07-08T05:34:06;7.50;;;5.57;;
17725;SDS011;8983;53.156;17.960;2023-07-08T05:36:34;7.13;;;5.80;;
17725;SDS011;8983;53.156;17.960;2023-07-08T05:39:02;8.97;;;5.80;;
17725;SDS011;8983;53.156;17.960;2023-07-08T05:41:30;10.93;;;5.43;;
17725;SDS011;8983;53.156;17.960;2023-07-08T05:43:58;8.77;;;5.60;;
17725;SDS011;8983;53.156;17.960;2023-07-08T05:46:27;6.83;;;5.20;;
17725;SDS011;8983;53.156;17.960;2023-07-08T05:48:55;7.60;;;5.47;;
17725;SDS011;8983;53.156;17.960;2023-07-08T05:51:28;9.77;;;5.60;;
17725;SDS011;8983;53.156;17.960;2023-07-08T05:53:57;6.93;;;5.60;;
17725;SDS011;8983;53.156;17.960;2023-07-08T05:56:30;7.67;;;5.43;;
17725;SDS011;8983;53.156;17.960;2023-07-08T05:58:58;7.37;;;5.23;;
17725;SDS011;8983;53.156;17.960;2023-07-08T06:01:26;8.53;;;5.47;;
17725;SDS011;8983;53.156;17.960;2023-07-08T06:03:55;7.40;;;4.90;;
17725;SDS011;8983;53.156;17.960;2023-07-08T06:06:24;7.95;;;5.28;;
17725;SDS011;8983;53.156;17.960;2023-07-08T06:08:54;7.07;;;5.37;;
17725;SDS011;8983;53.156;17.960;2023-07-08T06:11:22;7.33;;;4.57;;
17725;SDS011;8983;53.156;17.960;2023-07-08T06:13:50;9.27;;;4.37;;
17725;SDS011;8983;53.156;17.960;2023-07-08T06:16:19;9.30;;;5.00;;
17725;SDS011;8983;53.156;17.960;2023-07-08T06:19:05;10.18;;;5.25;;
17725;SDS011;8983;53.156;17.960;2023-07-08T06:21:33;7.05;;;4.68;;
17725;SDS011;8983;53.156;17.960;2023-07-08T06:24:03;8.37;;;4.30;;
17725;SDS011;8983;53.156;17.960;2023-07-08T06:26:31;4.80;;;4.18;;
17725;SDS011;8983;53.156;17.960;2023-07-08T06:29:00;5.05;;;3.83;;
17725;SDS011;8983;53.156;17.960;2023-07-08T06:31:28;3.80;;;3.42;;
17725;SDS011;8983;53.156;17.960;2023-07-08T06:33:57;3.97;;;3.58;;
17725;SDS011;8983;53.156;17.960;2023-07-08T06:36:25;3.60;;;2.90;;
17725;SDS011;8983;53.156;17.960;2023-07-08T06:38:53;2.92;;;2.70;;
17725;SDS011;8983;53.156;17.960;2023-07-08T06:41:23;2.85;;;2.63;;
17725;SDS011;8983;53.156;17.960;2023-07-08T06:43:51;7.88;;;3.03;;
17725;SDS011;8983;53.156;17.960;2023-07-08T06:46:20;3.10;;;2.78;;
17725;SDS011;8983;53.156;17.960;2023-07-08T06:48:50;4.63;;;2.90;;
17725;SDS011;8983;53.156;17.960;2023-07-08T06:51:20;4.38;;;2.92;;
17725;SDS011;8983;53.156;17.960;2023-07-08T06:53:48;4.07;;;3.15;;
17725;SDS011;8983;53.156;17.960;2023-07-08T06:56:16;3.20;;;2.60;;
17725;SDS011;8983;53.156;17.960;2023-07-08T06:58:46;3.38;;;2.80;;
17725;SDS011;8983;53.156;17.960;2023-07-08T07:01:14;3.83;;;3.38;;
17725;SDS011;8983;53.156;17.960;2023-07-08T07:03:43;2.78;;;2.50;;
17725;SDS011;8983;53.156;17.960;2023-07-08T07:06:11;3.97;;;2.92;;
17725;SDS011;8983;53.156;17.960;2023-07-08T07:08:40;3.92;;;2.70;;
17725;SDS011;8983;53.156;17.960;2023-07-08T07:11:08;2.72;;;2.47;;
17725;SDS011;8983;53.156;17.960;2023-07-08T07:13:36;3.50;;;2.50;;
17725;SDS011;8983;53.156;17.960;2023-07-08T07:16:06;3.70;;;2.58;;
17725;SDS011;8983;53.156;17.960;2023-07-08T07:18:34;3.75;;;2.80;;
17725;SDS011;8983;53.156;17.960;2023-07-08T07:21:03;4.47;;;2.80;;
17725;SDS011;8983;53.156;17.960;2023-07-08T07:23:33;6.00;;;3.20;;
17725;SDS011;8983;53.156;17.960;2023-07-08T07:26:01;3.08;;;2.78;;
17725;SDS011;8983;53.156;17.960;2023-07-08T07:28:30;5.45;;;2.92;;
17725;SDS011;8983;53.156;17.960;2023-07-08T07:30:59;3.90;;;2.80;;
17725;SDS011;8983;53.156;17.960;2023-07-08T07:33:29;3.78;;;2.50;;
17725;SDS011;8983;53.156;17.960;2023-07-08T07:35:58;3.35;;;2.90;;
17725;SDS011;8983;53.156;17.960;2023-07-08T07:38:27;3.22;;;2.45;;
17725;SDS011;8983;53.156;17.960;2023-07-08T07:40:57;4.57;;;2.90;;
17725;SDS011;8983;53.156;17.960;2023-07-08T07:43:26;3.92;;;2.65;;
17725;SDS011;8983;53.156;17.960;2023-07-08T07:45:54;3.17;;;2.60;;
17725;SDS011;8983;53.156;17.960;2023-07-08T07:48:23;3.22;;;2.65;;
17725;SDS011;8983;53.156;17.960;2023-07-08T07:50:53;3.35;;;2.85;;
17725;SDS011;8983;53.156;17.960;2023-07-08T07:53:22;3.63;;;2.88;;
17725;SDS011;8983;53.156;17.960;2023-07-08T07:55:55;3.05;;;2.40;;
17725;SDS011;8983;53.156;17.960;2023-07-08T07:58:24;4.88;;;3.15;;
17725;SDS011;8983;53.156;17.960;2023-07-08T08:00:53;2.90;;;2.63;;
17725;SDS011;8983;53.156;17.960;2023-07-08T08:03:21;2.58;;;2.38;;
17725;SDS011;8983;53.156;17.960;2023-07-08T08:05:50;6.05;;;2.90;;
17725;SDS011;8983;53.156;17.960;2023-07-08T08:08:20;6.97;;;2.80;;
17725;SDS011;8983;53.156;17.960;2023-07-08T08:11:03;2.75;;;2.50;;
17725;SDS011;8983;53.156;17.960;2023-07-08T08:13:31;4.07;;;2.58;;
17725;SDS011;8983;53.156;17.960;2023-07-08T08:16:08;3.33;;;2.65;;
17725;SDS011;8983;53.156;17.960;2023-07-08T08:18:50;3.33;;;2.30;;
17725;SDS011;8983;53.156;17.960;2023-07-08T08:21:31;3.10;;;2.53;;
17725;SDS011;8983;53.156;17.960;2023-07-08T08:24:01;4.70;;;2.05;;
17725;SDS011;8983;53.156;17.960;2023-07-08T08:26:29;3.55;;;2.38;;
17725;SDS011;8983;53.156;17.960;2023-07-08T08:28:58;3.95;;;2.38;;
17725;SDS011;8983;53.156;17.960;2023-07-08T08:31:26;3.28;;;2.17;;
17725;SDS011;8983;53.156;17.960;2023-07-08T08:33:55;2.63;;;2.30;;
17725;SDS011;8983;53.156;17.960;2023-07-08T08:36:23;3.42;;;2.28;;
17725;SDS011;8983;53.156;17.960;2023-07-08T08:38:54;3.72;;;2.30;;
17725;SDS011;8983;53.156;17.960;2023-07-08T08:41:27;3.20;;;2.05;;
17725;SDS011;8983;53.156;17.960;2023-07-08T08:43:58;2.00;;;1.90;;
17725;SDS011;8983;53.156;17.960;2023-07-08T08:46:31;4.47;;;2.42;;
17725;SDS011;8983;53.156;17.960;2023-07-08T08:49:05;4.22;;;2.35;;
17725;SDS011;8983;53.156;17.960;2023-07-08T08:51:40;3.72;;;2.53;;
17725;SDS011;8983;53.156;17.960;2023-07-08T08:54:08;3.20;;;2.30;;
17725;SDS011;8983;53.156;17.960;2023-07-08T08:56:39;3.58;;;2.45;;
17725;SDS011;8983;53.156;17.960;2023-07-08T08:59:17;3.50;;;2.30;;
17725;SDS011;8983;53.156;17.960;2023-07-08T09:01:54;4.40;;;2.28;;
17725;SDS011;8983;53.156;17.960;2023-07-08T09:04:25;2.60;;;2.30;;
17725;SDS011;8983;53.156;17.960;2023-07-08T09:06:59;3.28;;;2.40;;
17725;SDS011;8983;53.156;17.960;2023-07-08T09:09:33;3.75;;;2.20;;
17725;SDS011;8983;53.156;17.960;2023-07-08T09:12:09;4.57;;;2.58;;
17725;SDS011;8983;53.156;17.960;2023-07-08T09:14:44;4.18;;;2.38;;
17725;SDS011;8983;53.156;17.960;2023-07-08T09:17:15;3.00;;;2.58;;
17725;SDS011;8983;53.156;17.960;2023-07-08T09:19:47;4.35;;;2.40;;
17725;SDS011;8983;53.156;17.960;2023-07-08T09:22:21;3.08;;;2.40;;
17725;SDS011;8983;53.156;17.960;2023-07-08T09:25:05;2.53;;;2.20;;
17725;SDS011;8983;53.156;17.960;2023-07-08T09:27:41;2.00;;;1.90;;
17725;SDS011;8983;53.156;17.960;2023-07-08T09:30:10;2.42;;;1.88;;
17725;SDS011;8983;53.156;17.960;2023-07-08T09:32:42;2.55;;;2.20;;
17725;SDS011;8983;53.156;17.960;2023-07-08T09:35:16;3.60;;;2.28;;
17725;SDS011;8983;53.156;17.960;2023-07-08T09:37:45;2.25;;;2.00;;
17725;SDS011;8983;53.156;17.960;2023-07-08T09:40:16;2.33;;;2.13;;
17725;SDS011;8983;53.156;17.960;2023-07-08T09:42:49;2.95;;;2.10;;
17725;SDS011;8983;53.156;17.960;2023-07-08T09:45:21;2.30;;;2.10;;
17725;SDS011;8983;53.156;17.960;2023-07-08T09:47:51;2.30;;;2.10;;
17725;SDS011;8983;53.156;17.960;2023-07-08T09:50:22;5.20;;;2.15;;
17725;SDS011;8983;53.156;17.960;2023-07-08T09:52:52;2.40;;;2.20;;
17725;SDS011;8983;53.156;17.960;2023-07-08T09:55:24;2.25;;;2.03;;
17725;SDS011;8983;53.156;17.960;2023-07-08T09:57:55;2.88;;;2.00;;
17725;SDS011;8983;53.156;17.960;2023-07-08T10:00:29;3.13;;;2.10;;
17725;SDS011;8983;53.156;17.960;2023-07-08T10:03:03;2.20;;;1.90;;
17725;SDS011;8983;53.156;17.960;2023-07-08T10:05:37;3.05;;;2.40;;
17725;SDS011;8983;53.156;17.960;2023-07-08T10:08:11;2.03;;;1.83;;
17725;SDS011;8983;53.156;17.960;2023-07-08T10:10:42;2.45;;;2.10;;
17725;SDS011;8983;53.156;17.960;2023-07-08T10:13:17;2.30;;;2.10;;
17725;SDS011;8983;53.156;17.960;2023-07-08T10:15:49;2.92;;;2.20;;
17725;SDS011;8983;53.156;17.960;2023-07-08T10:18:24;2.60;;;1.90;;
17725;SDS011;8983;53.156;17.960;2023-07-08T10:20:57;2.78;;;2.10;;
17725;SDS011;8983;53.156;17.960;2023-07-08T10:23:41;2.58;;;2.13;;
17725;SDS011;8983;53.156;17.960;2023-07-08T10:26:20;2.58;;;2.20;;
17725;SDS011;8983;53.156;17.960;2023-07-08T10:28:57;2.30;;;2.10;;
17725;SDS011;8983;53.156;17.960;2023-07-08T10:31:46;3.42;;;2.00;;
17725;SDS011;8983;53.156;17.960;2023-07-08T10:34:24;2.28;;;2.05;;
17725;SDS011;8983;53.156;17.960;2023-07-08T10:37:05;3.40;;;2.00;;
17725;SDS011;8983;53.156;17.960;2023-07-08T10:39:53;2.50;;;2.30;;
17725;SDS011;8983;53.156;17.960;2023-07-08T10:42:27;4.90;;;2.38;;
17725;SDS011;8983;53.156;17.960;2023-07-08T10:45:09;4.57;;;2.25;;
17725;SDS011;8983;53.156;17.960;2023-07-08T10:47:50;2.60;;;2.17;;
17725;SDS011;8983;53.156;17.960;2023-07-08T10:50:31;2.15;;;1.95;;
17725;SDS011;8983;53.156;17.960;2023-07-08T10:53:25;2.63;;;2.05;;
17725;SDS011;8983;53.156;17.960;2023-07-08T10:56:07;2.45;;;2.25;;
17725;SDS011;8983;53.156;17.960;2023-07-08T10:58:46;3.45;;;2.30;;
17725;SDS011;8983;53.156;17.960;2023-07-08T11:01:37;3.08;;;2.13;;
17725;SDS011;8983;53.156;17.960;2023-07-08T11:04:19;3.75;;;2.13;;
17725;SDS011;8983;53.156;17.960;2023-07-08T11:06:57;2.83;;;2.53;;
17725;SDS011;8983;53.156;17.960;2023-07-08T11:09:35;2.50;;;2.03;;
17725;SDS011;8983;53.156;17.960;2023-07-08T11:12:09;2.42;;;1.98;;
17725;SDS011;8983;53.156;17.960;2023-07-08T11:14:49;2.85;;;2.10;;
17725;SDS011;8983;53.156;17.960;2023-07-08T11:17:26;3.20;;;2.10;;
17725;SDS011;8983;53.156;17.960;2023-07-08T11:19:59;3.28;;;2.00;;
17725;SDS011;8983;53.156;17.960;2023-07-08T11:22:37;2.92;;;2.10;;
17725;SDS011;8983;53.156;17.960;2023-07-08T11:25:16;2.85;;;2.13;;
17725;SDS011;8983;53.156;17.960;2023-07-08T11:27:46;2.80;;;2.10;;
17725;SDS011;8983;53.156;17.960;2023-07-08T11:30:21;2.20;;;2.00;;
17725;SDS011;8983;53.156;17.960;2023-07-08T11:32:54;2.75;;;1.90;;
17725;SDS011;8983;53.156;17.960;2023-07-08T11:35:29;2.85;;;2.15;;
17725;SDS011;8983;53.156;17.960;2023-07-08T11:38:03;2.70;;;2.08;;
17725;SDS011;8983;53.156;17.960;2023-07-08T11:40:32;2.40;;;2.10;;
17725;SDS011;8983;53.156;17.960;2023-07-08T11:43:18;3.20;;;2.45;;
17725;SDS011;8983;53.156;17.960;2023-07-08T11:45:48;3.70;;;2.25;;
17725;SDS011;8983;53.156;17.960;2023-07-08T11:48:22;2.38;;;2.00;;
17725;SDS011;8983;53.156;17.960;2023-07-08T11:50:56;2.08;;;1.90;;
17725;SDS011;8983;53.156;17.960;2023-07-08T11:53:36;3.65;;;2.20;;
17725;SDS011;8983;53.156;17.960;2023-07-08T11:56:18;2.60;;;2.40;;
17725;SDS011;8983;53.156;17.960;2023-07-08T12:01:45;2.45;;;2.00;;
17725;SDS011;8983;53.156;17.960;2023-07-08T12:04:20;2.40;;;2.20;;
17725;SDS011;8983;53.156;17.960;2023-07-08T12:07:03;5.88;;;2.40;;
17725;SDS011;8983;53.156;17.960;2023-07-08T12:09:46;2.60;;;2.25;;
17725;SDS011;8983;53.156;17.960;2023-07-08T12:12:23;2.35;;;2.15;;
17725;SDS011;8983;53.156;17.960;2023-07-08T12:14:53;2.53;;;2.25;;
17725;SDS011;8983;53.156;17.960;2023-07-08T12:17:34;4.65;;;2.38;;
17725;SDS011;8983;53.156;17.960;2023-07-08T12:20:06;2.30;;;1.80;;
17725;SDS011;8983;53.156;17.960;2023-07-08T12:22:44;2.38;;;2.17;;
17725;SDS011;8983;53.156;17.960;2023-07-08T12:25:13;2.42;;;1.88;;
17725;SDS011;8983;53.156;17.960;2023-07-08T12:27:42;3.70;;;2.38;;
17725;SDS011;8983;53.156;17.960;2023-07-08T12:30:11;2.70;;;2.30;;
17725;SDS011;8983;53.156;17.960;2023-07-08T12:32:40;2.50;;;2.13;;
17725;SDS011;8983;53.156;17.960;2023-07-08T12:35:16;3.03;;;2.20;;
17725;SDS011;8983;53.156;17.960;2023-07-08T12:37:50;3.55;;;2.10;;
17725;SDS011;8983;53.156;17.960;2023-07-08T12:40:20;3.63;;;2.30;;
17725;SDS011;8983;53.156;17.960;2023-07-08T12:42:49;2.83;;;2.40;;
17725;SDS011;8983;53.156;17.960;2023-07-08T12:45:19;3.38;;;2.17;;
17725;SDS011;8983;53.156;17.960;2023-07-08T12:47:49;3.72;;;1.90;;
17725;SDS011;8983;53.156;17.960;2023-07-08T12:50:21;2.63;;;2.25;;
17725;SDS011;8983;53.156;17.960;2023-07-08T12:52:49;2.42;;;2.10;;
17725;SDS011;8983;53.156;17.960;2023-07-08T12:55:17;2.80;;;2.20;;
17725;SDS011;8983;53.156;17.960;2023-07-08T12:57:47;3.40;;;2.20;;
17725;SDS011;8983;53.156;17.960;2023-07-08T13:00:20;4.32;;;2.28;;
17725;SDS011;8983;53.156;17.960;2023-07-08T13:02:55;2.30;;;2.10;;
17725;SDS011;8983;53.156;17.960;2023-07-08T13:05:27;2.80;;;2.15;;
17725;SDS011;8983;53.156;17.960;2023-07-08T13:07:56;2.72;;;2.45;;
17725;SDS011;8983;53.156;17.960;2023-07-08T13:10:26;2.30;;;2.05;;
17725;SDS011;8983;53.156;17.960;2023-07-08T13:12:57;3.00;;;2.60;;
17725;SDS011;8983;53.156;17.960;2023-07-08T13:15:28;2.47;;;2.05;;
17725;SDS011;8983;53.156;17.960;2023-07-08T13:18:01;3.20;;;2.08;;
17725;SDS011;8983;53.156;17.960;2023-07-08T13:20:32;2.55;;;2.30;;
17725;SDS011;8983;53.156;17.960;2023-07-08T13:23:00;2.95;;;2.15;;
17725;SDS011;8983;53.156;17.960;2023-07-08T13:25:30;6.55;;;2.25;;
17725;SDS011;8983;53.156;17.960;2023-07-08T13:28:00;2.30;;;2.10;;
17725;SDS011;8983;53.156;17.960;2023-07-08T13:30:30;2.75;;;2.55;;
17725;SDS011;8983;53.156;17.960;2023-07-08T13:32:58;2.70;;;2.13;;
17725;SDS011;8983;53.156;17.960;2023-07-08T13:35:28;6.57;;;2.30;;
17725;SDS011;8983;53.156;17.960;2023-07-08T13:38:05;2.33;;;2.03;;
17725;SDS011;8983;53.156;17.960;2023-07-08T13:40:40;3.53;;;2.25;;
17725;SDS011;8983;53.156;17.960;2023-07-08T13:43:11;2.38;;;2.10;;
17725;SDS011;8983;53.156;17.960;2023-07-08T13:45:43;2.83;;;2.55;;
17725;SDS011;8983;53.156;17.960;2023-07-08T13:48:18;3.35;;;2.05;;
17725;SDS011;8983;53.156;17.960;2023-07-08T13:50:57;3.15;;;2.50;;
17725;SDS011;8983;53.156;17.960;2023-07-08T13:53:33;2.65;;;2.45;;
17725;SDS011;8983;53.156;17.960;2023-07-08T13:56:12;2.90;;;2.20;;
17725;SDS011;8983;53.156;17.960;2023-07-08T13:58:42;3.40;;;2.20;;
17725;SDS011;8983;53.156;17.960;2023-07-08T14:01:13;2.60;;;2.40;;
17725;SDS011;8983;53.156;17.960;2023-07-08T14:03:48;3.10;;;2.15;;
17725;SDS011;8983;53.156;17.960;2023-07-08T14:06:20;2.75;;;2.42;;
17725;SDS011;8983;53.156;17.960;2023-07-08T14:08:50;2.38;;;2.17;;
17725;SDS011;8983;53.156;17.960;2023-07-08T14:11:21;3.25;;;2.38;;
17725;SDS011;8983;53.156;17.960;2023-07-08T14:13:50;3.15;;;2.70;;
17725;SDS011;8983;53.156;17.960;2023-07-08T14:16:20;2.47;;;2.28;;
17725;SDS011;8983;53.156;17.960;2023-07-08T14:18:53;2.88;;;2.20;;
17725;SDS011;8983;53.156;17.960;2023-07-08T14:21:24;2.47;;;2.28;;
17725;SDS011;8983;53.156;17.960;2023-07-08T14:23:52;3.00;;;2.70;;
17725;SDS011;8983;53.156;17.960;2023-07-08T14:26:20;2.20;;;1.92;;
17725;SDS011;8983;53.156;17.960;2023-07-08T14:28:48;3.65;;;2.03;;
17725;SDS011;8983;53.156;17.960;2023-07-08T14:34:36;2.78;;;2.10;;
17725;SDS011;8983;53.156;17.960;2023-07-08T14:37:07;3.40;;;2.53;;
17725;SDS011;8983;53.156;17.960;2023-07-08T14:39:40;5.05;;;2.42;;
17725;SDS011;8983;53.156;17.960;2023-07-08T14:42:09;2.40;;;2.10;;
17725;SDS011;8983;53.156;17.960;2023-07-08T14:44:39;2.58;;;2.00;;
17725;SDS011;8983;53.156;17.960;2023-07-08T14:47:10;3.30;;;2.30;;
17725;SDS011;8983;53.156;17.960;2023-07-08T14:49:41;5.15;;;2.47;;
17725;SDS011;8983;53.156;17.960;2023-07-08T14:52:11;4.28;;;2.78;;
17725;SDS011;8983;53.156;17.960;2023-07-08T14:54:40;2.55;;;2.35;;
17725;SDS011;8983;53.156;17.960;2023-07-08T14:57:09;2.78;;;2.40;;
17725;SDS011;8983;53.156;17.960;2023-07-08T14:59:43;2.42;;;2.20;;
17725;SDS011;8983;53.156;17.960;2023-07-08T15:02:16;2.47;;;2.28;;
17725;SDS011;8983;53.156;17.960;2023-07-08T15:04:48;2.55;;;2.20;;
17725;SDS011;8983;53.156;17.960;2023-07-08T15:07:21;2.33;;;2.13;;
17725;SDS011;8983;53.156;17.960;2023-07-08T15:09:50;4.75;;;2.63;;
17725;SDS011;8983;53.156;17.960;2023-07-08T15:12:18;3.28;;;2.42;;
17725;SDS011;8983;53.156;17.960;2023-07-08T15:14:47;2.97;;;2.47;;
17725;SDS011;8983;53.156;17.960;2023-07-08T15:17:15;2.20;;;2.05;;
17725;SDS011;8983;53.156;17.960;2023-07-08T15:19:44;3.33;;;2.25;;